createdAt,value
2018-09-12T00:00:59.472Z,59.92
2018-09-12T00:01:59.225Z,60.28
2018-09-12T00:02:59.146Z,60.38
2018-09-12T00:03:59.148Z,60.14
2018-09-12T00:04:59.145Z,60.38
2018-09-12T00:05:59.186Z,59.94
2018-09-12T00:06:59.431Z,60.02
2018-09-12T00:07:58.975Z,60.06
2018-09-12T00:08:59.135Z,60.33
2018-09-12T00:09:59.232Z,60.34
2018-09-12T00:10:59.176Z,60.69
2018-09-12T00:11:59.195Z,60.76
2018-09-12T00:12:59.140Z,61.05
2018-09-12T00:13:59.178Z,61.18
2018-09-12T00:14:59.220Z,60.55
2018-09-12T00:15:59.196Z,61.11
2018-09-12T00:16:59.205Z,60.95
2018-09-12T00:17:59.313Z,61.05
2018-09-12T00:18:59.380Z,60.63
2018-09-12T00:19:59.164Z,60.63
2018-09-12T00:20:59.180Z,60.33
2018-09-12T00:21:59.228Z,60.76
2018-09-12T00:22:59.468Z,60.55
2018-09-12T00:23:59.778Z,61.23
2018-09-12T00:24:59.217Z,61.49
2018-09-12T00:25:59.491Z,61.2
2018-09-12T00:26:59.484Z,61.25
2018-09-12T00:27:59.501Z,61.49
2018-09-12T00:28:59.328Z,61.16
2018-09-12T00:29:59.409Z,61.81
2018-09-12T00:30:59.216Z,61.89
2018-09-12T00:31:59.523Z,61.56
2018-09-12T00:32:59.383Z,62.22
2018-09-12T00:33:59.242Z,61.76
2018-09-12T00:34:59.450Z,61.5
2018-09-12T00:35:59.206Z,61.72
2018-09-12T00:36:59.242Z,62.18
2018-09-12T00:37:59.473Z,61.4
2018-09-12T00:38:59.359Z,62.16
2018-09-12T00:39:59.198Z,61.31
2018-09-12T00:40:59.225Z,61.87
2018-09-12T00:41:59.189Z,61.97
2018-09-12T00:42:59.234Z,61.47
2018-09-12T00:43:59.256Z,61.89
2018-09-12T00:44:59.234Z,61.43
2018-09-12T00:45:59.152Z,61.88
2018-09-12T00:46:59.283Z,62.09
2018-09-12T00:47:59.523Z,62.29
2018-09-12T00:48:59.247Z,61.95
2018-09-12T00:49:59.214Z,62.33
2018-09-12T00:50:59.343Z,61.77
2018-09-12T00:51:59.321Z,62.24
2018-09-12T00:52:59.187Z,62.09
2018-09-12T00:53:59.372Z,62.09
2018-09-12T00:54:59.204Z,61.89
2018-09-12T00:55:59.192Z,62.69
2018-09-12T00:56:59.201Z,62.02
2018-09-12T00:57:59.195Z,61.81
2018-09-12T00:58:59.219Z,61.82
2018-09-12T00:59:59.296Z,62.41
2018-09-12T01:00:59.331Z,62.14
2018-09-12T01:01:59.216Z,61.97
2018-09-12T01:02:59.383Z,61.77
2018-09-12T01:03:59.276Z,61.79
2018-09-12T01:04:59.288Z,61.64
2018-09-12T01:05:59.379Z,61.84
2018-09-12T01:06:59.252Z,61.59
2018-09-12T01:07:59.333Z,61.77
2018-09-12T01:08:59.241Z,62.04
2018-09-12T01:09:59.212Z,62.17
2018-09-12T01:10:59.281Z,62.69
2018-09-12T01:11:59.520Z,62.18
2018-09-12T01:12:59.190Z,62.57
2018-09-12T01:13:59.260Z,62.92
2018-09-12T01:14:59.328Z,62.69
2018-09-12T01:15:59.244Z,62.82
2018-09-12T01:16:59.373Z,62.33
2018-09-12T01:17:59.257Z,62.32
2018-09-12T01:18:59.034Z,62.43
2018-09-12T01:19:59.385Z,62.18
2018-09-12T01:20:59.166Z,62.58
2018-09-12T01:21:59.270Z,62.84
2018-09-12T01:22:59.255Z,63.02
2018-09-12T01:23:59.280Z,63.04
2018-09-12T01:24:59.251Z,62.99
2018-09-12T01:25:59.198Z,63
2018-09-12T01:26:59.279Z,63.21
2018-09-12T01:27:59.200Z,62.64
2018-09-12T01:28:59.207Z,63.02
2018-09-12T01:29:59.238Z,63.15
2018-09-12T01:30:59.272Z,62.37
2018-09-12T01:31:59.222Z,63.17
2018-09-12T01:32:59.524Z,63.34
2018-09-12T01:33:59.207Z,62.95
2018-09-12T01:34:59.280Z,63.19
2018-09-12T01:35:59.465Z,63.08
2018-09-12T01:36:59.269Z,63.08
2018-09-12T01:37:59.381Z,63.59
2018-09-12T01:38:59.225Z,63.62
2018-09-12T01:39:59.205Z,63.56
2018-09-12T01:40:59.434Z,62.95
2018-09-12T01:41:59.211Z,63.67
2018-09-12T01:42:59.593Z,63.13
2018-09-12T01:43:59.189Z,63.66
2018-09-12T01:44:59.300Z,63.96
2018-09-12T01:45:59.266Z,63.99
2018-09-12T01:46:59.638Z,63.68
2018-09-12T01:47:59.325Z,63.79
2018-09-12T01:48:59.539Z,64.01
2018-09-12T01:49:59.445Z,63.77
2018-09-12T01:50:59.499Z,64.1
2018-09-12T01:51:59.331Z,63.93
2018-09-12T01:52:59.547Z,63.7
2018-09-12T01:53:59.365Z,63.96
2018-09-12T01:54:59.393Z,63.59
2018-09-12T01:55:59.273Z,63.17
2018-09-12T01:56:59.238Z,62.96
2018-09-12T01:57:59.500Z,63.14
2018-09-12T01:58:59.305Z,63
2018-09-12T01:59:59.253Z,63.08
2018-09-12T02:00:59.276Z,63.29
2018-09-12T02:01:59.298Z,62.81
2018-09-12T02:02:59.303Z,63.49
2018-09-12T02:03:59.172Z,63.31
2018-09-12T02:04:59.090Z,64.01
2018-09-12T02:05:59.267Z,64.48
2018-09-12T02:06:59.262Z,63.75
2018-09-12T02:07:59.303Z,64.18
2018-09-12T02:08:59.574Z,63.76
2018-09-12T02:09:59.253Z,63.95
2018-09-12T02:10:59.281Z,63.61
2018-09-12T02:11:59.261Z,64.12
2018-09-12T02:12:59.284Z,63.57
2018-09-12T02:13:59.252Z,63.65
2018-09-12T02:14:59.220Z,63.88
2018-09-12T02:15:59.282Z,63.53
2018-09-12T02:16:59.316Z,63.87
2018-09-12T02:17:59.238Z,63.61
2018-09-12T02:18:59.349Z,63.54
2018-09-12T02:19:59.404Z,63.71
2018-09-12T02:20:59.350Z,64.04
2018-09-12T02:21:59.562Z,63.58
2018-09-12T02:22:59.450Z,63.68
2018-09-12T02:23:59.473Z,63.7
2018-09-12T02:24:59.388Z,63.68
2018-09-12T02:25:59.362Z,64.05
2018-09-12T02:26:59.366Z,64.15
2018-09-12T02:27:59.316Z,63.77
2018-09-12T02:28:59.601Z,64.18
2018-09-12T02:29:59.297Z,64.7
2018-09-12T02:30:59.236Z,64.16
2018-09-12T02:31:59.439Z,64.54
2018-09-12T02:32:59.320Z,63.9
2018-09-12T02:33:59.596Z,63.8
2018-09-12T02:34:59.256Z,63.88
2018-09-12T02:35:59.251Z,64.21
2018-09-12T02:36:59.473Z,64.58
2018-09-12T02:37:59.366Z,64.54
2018-09-12T02:38:59.665Z,64.55
2018-09-12T02:39:59.075Z,64.37
2018-09-12T02:40:59.335Z,64.73
2018-09-12T02:41:59.226Z,64.63
2018-09-12T02:42:59.723Z,65.02
2018-09-12T02:43:59.319Z,65.02
2018-09-12T02:44:59.349Z,64.63
2018-09-12T02:45:59.669Z,64.31
2018-09-12T02:46:59.289Z,64.52
2018-09-12T02:47:59.418Z,64.17
2018-09-12T02:48:59.340Z,65.04
2018-09-12T02:49:59.249Z,64.39
2018-09-12T02:50:59.435Z,64.86
2018-09-12T02:51:59.450Z,65
2018-09-12T02:52:59.277Z,65.13
2018-09-12T02:53:59.286Z,64.85
2018-09-12T02:54:59.326Z,64.92
2018-09-12T02:55:59.290Z,64.72
2018-09-12T02:56:59.344Z,64.89
2018-09-12T02:57:59.416Z,65.7
2018-09-12T02:58:59.293Z,65.18
2018-09-12T02:59:59.442Z,64.83
2018-09-12T03:00:59.563Z,65.17
2018-09-12T03:01:59.323Z,65
2018-09-12T03:02:59.344Z,65.93
2018-09-12T03:03:59.744Z,65.91
2018-09-12T03:04:59.515Z,66.18
2018-09-12T03:05:59.459Z,65.45
2018-09-12T03:06:59.274Z,66
2018-09-12T03:07:59.479Z,65.53
2018-09-12T03:08:59.253Z,65.57
2018-09-12T03:09:59.277Z,65.76
2018-09-12T03:10:59.587Z,66.17
2018-09-12T03:11:59.338Z,65.55
2018-09-12T03:12:59.274Z,66.12
2018-09-12T03:13:59.253Z,66.33
2018-09-12T03:14:59.313Z,65.89
2018-09-12T03:15:59.382Z,65.63
2018-09-12T03:16:59.284Z,65.47
2018-09-12T03:17:59.290Z,65.65
2018-09-12T03:18:59.662Z,65.74
2018-09-12T03:19:59.449Z,66.22
2018-09-12T03:20:59.688Z,66.15
2018-09-12T03:21:59.555Z,65.92
2018-09-12T03:22:59.292Z,66.04
2018-09-12T03:23:59.376Z,65.94
2018-09-12T03:24:59.303Z,66.36
2018-09-12T03:25:59.302Z,65.89
2018-09-12T03:26:59.307Z,66.23
2018-09-12T03:27:59.439Z,66.44
2018-09-12T03:28:59.350Z,66.62
2018-09-12T03:29:59.728Z,66.8
2018-09-12T03:30:59.369Z,67.03
2018-09-12T03:31:59.447Z,66.74
2018-09-12T03:32:59.395Z,66.99
2018-09-12T03:33:59.409Z,66.2
2018-09-12T03:34:59.509Z,66.98
2018-09-12T03:35:59.680Z,67.24
2018-09-12T03:36:59.267Z,67.03
2018-09-12T03:37:59.374Z,66.62
2018-09-12T03:38:59.289Z,67.6
2018-09-12T03:39:59.542Z,67.31
2018-09-12T03:40:59.489Z,67.03
2018-09-12T03:41:59.272Z,66.83
2018-09-12T03:42:59.289Z,67
2018-09-12T03:43:59.227Z,67.32
2018-09-12T03:44:59.471Z,66.85
2018-09-12T03:45:59.377Z,66.75
2018-09-12T03:46:59.329Z,66.55
2018-09-12T03:47:59.949Z,66.46
2018-09-12T03:48:59.181Z,66.91
2018-09-12T03:49:59.303Z,66.31
2018-09-12T03:50:59.344Z,66.82
2018-09-12T03:51:59.776Z,67.11
2018-09-12T03:52:59.593Z,67.55
2018-09-12T03:53:59.393Z,67.66
2018-09-12T03:54:59.395Z,67.26
2018-09-12T03:55:59.294Z,67.1
2018-09-12T03:56:59.298Z,67.03
2018-09-12T03:57:59.317Z,67.33
2018-09-12T03:58:59.538Z,67.05
2018-09-12T03:59:59.353Z,67.32
2018-09-12T04:00:59.320Z,67.45
2018-09-12T04:01:59.327Z,67.31
2018-09-12T04:02:59.338Z,66.85
2018-09-12T04:03:59.698Z,67.33
2018-09-12T04:04:59.615Z,67.96
2018-09-12T04:05:59.369Z,67.29
2018-09-12T04:06:59.353Z,67.74
2018-09-12T04:07:59.456Z,67.2
2018-09-12T04:08:59.350Z,68.06
2018-09-12T04:09:59.356Z,67.87
2018-09-12T04:10:59.302Z,67.43
2018-09-12T04:11:59.302Z,67.81
2018-09-12T04:12:59.312Z,67.33
2018-09-12T04:13:59.411Z,67.55
2018-09-12T04:14:59.352Z,67.48
2018-09-12T04:15:59.330Z,67.64
2018-09-12T04:17:01.161Z,67.38
2018-09-12T04:17:59.334Z,67.36
2018-09-12T04:18:59.333Z,67.93
2018-09-12T04:19:59.395Z,67.8
2018-09-12T04:20:59.308Z,68.32
2018-09-12T04:21:59.381Z,68.21
2018-09-12T04:22:59.357Z,68.13
2018-09-12T04:23:59.366Z,68.17
2018-09-12T04:24:59.551Z,67.75
2018-09-12T04:25:59.424Z,67.71
2018-09-12T04:26:59.559Z,67.94
2018-09-12T04:27:59.380Z,68.22
2018-09-12T04:28:59.529Z,67.77
2018-09-12T04:29:59.414Z,68.12
2018-09-12T04:30:59.632Z,68.23
2018-09-12T04:31:59.393Z,68.31
2018-09-12T04:32:59.701Z,68.58
2018-09-12T04:33:59.375Z,68.6
2018-09-12T04:34:59.660Z,68.45
2018-09-12T04:35:59.402Z,68.47
2018-09-12T04:36:59.606Z,68.06
2018-09-12T04:37:59.325Z,68.8
2018-09-12T04:38:59.694Z,68.19
2018-09-12T04:39:59.701Z,68.16
2018-09-12T04:40:59.428Z,68.04
2018-09-12T04:42:00.216Z,69.08
2018-09-12T04:42:59.378Z,68.35
2018-09-12T04:43:59.558Z,69.16
2018-09-12T04:44:59.420Z,68.22
2018-09-12T04:45:59.708Z,68.68
2018-09-12T04:46:59.541Z,68.95
2018-09-12T04:47:59.404Z,69.06
2018-09-12T04:48:59.418Z,68.46
2018-09-12T04:49:59.427Z,68.61
2018-09-12T04:50:59.480Z,68.39
2018-09-12T04:51:59.484Z,68.28
2018-09-12T04:52:59.350Z,68.47
2018-09-12T04:53:59.693Z,69.26
2018-09-12T04:54:59.736Z,68.65
2018-09-12T04:55:59.254Z,68.9
2018-09-12T04:56:59.345Z,68.91
2018-09-12T04:57:59.907Z,68.87
2018-09-12T04:58:59.505Z,68.69
2018-09-12T04:59:59.384Z,68.63
2018-09-12T05:00:59.417Z,69.34
2018-09-12T05:01:59.960Z,69.03
2018-09-12T05:02:59.424Z,68.98
2018-09-12T05:03:59.391Z,68.74
2018-09-12T05:04:59.444Z,68.55
2018-09-12T05:05:59.463Z,68.53
2018-09-12T05:06:59.396Z,68.88
2018-09-12T05:07:59.341Z,69.52
2018-09-12T05:08:59.499Z,69.21
2018-09-12T05:09:59.419Z,69.21
2018-09-12T05:10:59.527Z,69
2018-09-12T05:11:59.403Z,69.42
2018-09-12T05:12:59.451Z,69.67
2018-09-12T05:13:59.372Z,69.39
2018-09-12T05:14:59.423Z,69.23
2018-09-12T05:15:59.520Z,70.09
2018-09-12T05:16:59.494Z,70
2018-09-12T05:17:59.359Z,69.65
2018-09-12T05:18:59.446Z,69.63
2018-09-12T05:19:59.512Z,69
2018-09-12T05:20:59.355Z,69.16
2018-09-12T05:21:59.374Z,69.17
2018-09-12T05:22:59.384Z,69.81
2018-09-12T05:23:59.383Z,69.86
2018-09-12T05:24:59.430Z,69.18
2018-09-12T05:25:59.686Z,70.21
2018-09-12T05:26:59.554Z,69.48
2018-09-12T05:27:59.609Z,69.18
2018-09-12T05:28:59.428Z,68.95
2018-09-12T05:29:59.771Z,69.06
2018-09-12T05:30:59.399Z,68.92
2018-09-12T05:31:59.617Z,69.31
2018-09-12T05:32:59.164Z,69.47
2018-09-12T05:33:59.439Z,69.32
2018-09-12T05:34:59.524Z,69.4
2018-09-12T05:35:59.559Z,69.29
2018-09-12T05:36:59.476Z,69.14
2018-09-12T05:37:59.405Z,69.78
2018-09-12T05:38:59.595Z,69.45
2018-09-12T05:39:59.347Z,70.17
2018-09-12T05:40:59.416Z,69.41
2018-09-12T05:41:59.468Z,69.32
2018-09-12T05:42:59.441Z,69.99
2018-09-12T05:43:59.390Z,69.87
2018-09-12T05:44:59.443Z,70.28
2018-09-12T05:45:59.662Z,69.57
2018-09-12T05:46:59.447Z,69.71
2018-09-12T05:47:59.408Z,69.95
2018-09-12T05:49:06.401Z,69.62
2018-09-12T05:50:00.357Z,69.32
2018-09-12T05:51:00.973Z,69.93
2018-09-12T05:51:59.469Z,69.66
2018-09-12T05:52:59.642Z,69.71
2018-09-12T05:53:59.421Z,69.96
2018-09-12T05:54:59.418Z,70.23
2018-09-12T05:55:59.702Z,70.04
2018-09-12T05:56:59.413Z,70.25
2018-09-12T05:57:59.621Z,70.04
2018-09-12T05:58:59.359Z,70.08
2018-09-12T05:59:59.365Z,69.86
2018-09-12T06:00:59.386Z,70.07
2018-09-12T06:01:59.641Z,70.07
2018-09-12T06:02:59.464Z,70.12
2018-09-12T06:03:59.440Z,70.3
2018-09-12T06:04:59.704Z,69.69
2018-09-12T06:05:59.564Z,69.76
2018-09-12T06:06:59.611Z,69.98
2018-09-12T06:07:59.496Z,69.49
2018-09-12T06:08:59.669Z,70.01
2018-09-12T06:09:59.567Z,69.92
2018-09-12T06:10:59.421Z,69.85
2018-09-12T06:11:59.608Z,69.64
2018-09-12T06:12:59.626Z,69.52
2018-09-12T06:13:59.458Z,69.33
2018-09-12T06:14:59.400Z,69.69
2018-09-12T06:15:59.515Z,69.79
2018-09-12T06:16:59.383Z,69.95
2018-09-12T06:17:59.447Z,69.41
2018-09-12T06:18:59.403Z,69.94
2018-09-12T06:19:59.472Z,69.9
2018-09-12T06:20:59.404Z,69.9
2018-09-12T06:21:59.675Z,70.18
2018-09-12T06:22:59.509Z,69.81
2018-09-12T06:23:59.590Z,70.01
2018-09-12T06:24:59.217Z,69.77
2018-09-12T06:25:59.673Z,69.77
2018-09-12T06:26:59.536Z,69.41
2018-09-12T06:27:59.573Z,69.01
2018-09-12T06:28:59.469Z,69.65
2018-09-12T06:29:59.475Z,69.58
2018-09-12T06:30:59.475Z,69.4
2018-09-12T06:31:59.412Z,69.19
2018-09-12T06:32:59.382Z,69.47
2018-09-12T06:33:59.488Z,69.32
2018-09-12T06:34:59.511Z,69.53
2018-09-12T06:35:59.433Z,69.78
2018-09-12T06:36:59.499Z,69.64
2018-09-12T06:37:59.429Z,69.19
2018-09-12T06:38:59.335Z,69.43
2018-09-12T06:39:59.523Z,69.62
2018-09-12T06:40:59.441Z,69.1
2018-09-12T06:41:59.546Z,69.21
2018-09-12T06:42:59.712Z,69.25
2018-09-12T06:43:59.475Z,68.84
2018-09-12T06:44:59.371Z,69.27
2018-09-12T06:45:59.453Z,69.21
2018-09-12T06:46:59.586Z,68.83
2018-09-12T06:48:00.374Z,68.76
2018-09-12T06:48:59.546Z,68.79
2018-09-12T06:49:59.480Z,68.92
2018-09-12T06:50:59.414Z,68.47
2018-09-12T06:51:59.514Z,68.83
2018-09-12T06:52:59.476Z,68.84
2018-09-12T06:53:59.444Z,68.63
2018-09-12T06:54:59.488Z,68.42
2018-09-12T06:55:59.432Z,68.39
2018-09-12T06:56:59.452Z,68.41
2018-09-12T06:57:59.418Z,68.47
2018-09-12T06:58:59.548Z,68.18
2018-09-12T06:59:59.529Z,67.77
2018-09-12T07:00:59.482Z,68.21
2018-09-12T07:01:59.513Z,68.23
2018-09-12T07:02:59.485Z,68.03
2018-09-12T07:03:59.532Z,67.86
2018-09-12T07:04:59.495Z,67.85
2018-09-12T07:05:59.538Z,68.1
2018-09-12T07:06:59.413Z,67.64
2018-09-12T07:07:59.669Z,67.5
2018-09-12T07:08:59.562Z,67.02
2018-09-12T07:09:59.527Z,67.21
2018-09-12T07:10:59.535Z,67.64
2018-09-12T07:11:59.651Z,67.36
2018-09-12T07:12:59.565Z,67.17
2018-09-12T07:13:59.451Z,66.7
2018-09-12T07:15:00.340Z,66.66
2018-09-12T07:15:59.940Z,66.72
2018-09-12T07:16:59.268Z,66.54
2018-09-12T07:17:59.584Z,66.18
2018-09-12T07:18:59.570Z,66.28
2018-09-12T07:19:59.865Z,66.19
2018-09-12T07:20:59.417Z,65.98
2018-09-12T07:21:59.683Z,66.07
2018-09-12T07:22:59.545Z,66.11
2018-09-12T07:23:59.645Z,65.88
2018-09-12T07:24:59.425Z,65.69
2018-09-12T07:25:59.449Z,65.36
2018-09-12T07:26:59.587Z,65.55
2018-09-12T07:27:59.508Z,65.61
2018-09-12T07:28:59.479Z,65.54
2018-09-12T07:29:59.476Z,65.22
2018-09-12T07:30:59.448Z,65.2
2018-09-12T07:31:59.581Z,65.02
2018-09-12T07:32:59.576Z,64.76
2018-09-12T07:33:59.585Z,64.82
2018-09-12T07:34:59.615Z,64.56
2018-09-12T07:35:59.456Z,64.39
2018-09-12T07:36:59.584Z,65.02
2018-09-12T07:37:59.505Z,64.75
2018-09-12T07:38:59.497Z,64.6
2018-09-12T07:39:59.549Z,64.75
2018-09-12T07:40:59.750Z,64.64
2018-09-12T07:41:59.527Z,64.81
2018-09-12T07:42:59.927Z,64.88
2018-09-12T07:43:59.479Z,64.67
2018-09-12T07:44:59.543Z,63.91
2018-09-12T07:45:59.488Z,64.54
2018-09-12T07:46:59.954Z,64.5
2018-09-12T07:48:00.064Z,64.27
2018-09-12T07:48:59.633Z,64.11
2018-09-12T07:49:59.630Z,63.7
2018-09-12T07:50:59.527Z,64.1
2018-09-12T07:51:59.620Z,64.02
2018-09-12T07:52:59.434Z,64.24
2018-09-12T07:53:59.450Z,63.18
2018-09-12T07:54:59.534Z,63.91
2018-09-12T07:55:59.549Z,64.63
2018-09-12T07:57:00.128Z,64.04
2018-09-12T07:57:59.625Z,63.88
2018-09-12T07:58:59.610Z,63.69
2018-09-12T07:59:59.526Z,62.96
2018-09-12T08:00:59.683Z,63.59
2018-09-12T08:01:59.539Z,63.05
2018-09-12T08:02:59.706Z,62.84
2018-09-12T08:03:59.511Z,62.74
2018-09-12T08:04:59.876Z,62.62
2018-09-12T08:05:59.676Z,62.63
2018-09-12T08:06:59.524Z,62.38
2018-09-12T08:07:59.561Z,62.53
2018-09-12T08:08:59.694Z,61.91
2018-09-12T08:09:59.511Z,61.78
2018-09-12T08:10:59.500Z,62.06
2018-09-12T08:11:59.563Z,61.57
2018-09-12T08:12:59.513Z,61.73
2018-09-12T08:13:59.442Z,62.06
2018-09-12T08:14:59.541Z,61.69
2018-09-12T08:15:59.617Z,61.8
2018-09-12T08:16:59.552Z,60.88
2018-09-12T08:17:59.635Z,61.26
2018-09-12T08:18:59.615Z,61.69
2018-09-12T08:19:59.832Z,61.34
2018-09-12T08:20:59.461Z,61.1
2018-09-12T08:21:59.501Z,60.43
2018-09-12T08:22:59.996Z,61.02
2018-09-12T08:23:59.650Z,61.06
2018-09-12T08:24:59.532Z,61.05
2018-09-12T08:25:59.520Z,60.16
2018-09-12T08:26:59.531Z,60.44
2018-09-12T08:27:59.556Z,60.7
2018-09-12T08:28:59.567Z,61.05
2018-09-12T08:29:59.662Z,59.69
2018-09-12T08:30:59.545Z,59.31
2018-09-12T08:31:59.629Z,59.69
2018-09-12T08:32:59.504Z,60.03
2018-09-12T08:33:59.535Z,60.71
2018-09-12T08:34:59.600Z,59.96
2018-09-12T08:35:59.526Z,59.4
2018-09-12T08:36:59.776Z,59.6
2018-09-12T08:37:59.531Z,59.72
2018-09-12T08:38:59.511Z,59.58
2018-09-12T08:40:00.148Z,60.03
2018-09-12T08:41:00.226Z,59.92
2018-09-12T08:41:59.531Z,59.97
2018-09-12T08:42:59.582Z,59.44
2018-09-12T08:43:59.558Z,59.24
2018-09-12T08:44:59.740Z,59.48
2018-09-12T08:45:59.788Z,59.29
2018-09-12T08:46:59.857Z,58.82
2018-09-12T08:47:59.551Z,59.21
2018-09-12T08:48:59.624Z,59.57
2018-09-12T08:49:59.500Z,57.09
2018-09-12T08:50:59.613Z,56.53
2018-09-12T08:51:59.631Z,56.66
2018-09-12T08:52:59.694Z,56.65
2018-09-12T08:54:00.028Z,56.69
2018-09-12T08:54:59.707Z,56.58
2018-09-12T08:55:59.758Z,56.12
2018-09-12T08:56:59.677Z,56.55
2018-09-12T08:57:59.511Z,55.88
2018-09-12T08:58:59.501Z,55.72
2018-09-12T08:59:59.628Z,55.72
2018-09-12T09:00:59.565Z,55.85
2018-09-12T09:01:59.735Z,55.82
2018-09-12T09:02:59.602Z,55.48
2018-09-12T09:03:59.490Z,54.62
2018-09-12T09:04:59.560Z,54.6
2018-09-12T09:05:59.531Z,55.21
2018-09-12T09:06:59.568Z,54.3
2018-09-12T09:07:59.699Z,54.07
2018-09-12T09:08:59.658Z,54.82
2018-09-12T09:09:59.557Z,54.77
2018-09-12T09:10:59.356Z,55
2018-09-12T09:11:59.639Z,54.56
2018-09-12T09:12:59.609Z,54.39
2018-09-12T09:13:59.534Z,54.16
2018-09-12T09:14:59.583Z,53.96
2018-09-12T09:15:59.573Z,54.1
2018-09-12T09:16:59.747Z,54.09
2018-09-12T09:17:59.817Z,55.06
2018-09-12T09:18:59.587Z,54.82
2018-09-12T09:19:59.597Z,54.22
2018-09-12T09:20:59.775Z,53.73
2018-09-12T09:21:59.788Z,54.08
2018-09-12T09:22:59.614Z,54.05
2018-09-12T09:23:59.532Z,53.95
2018-09-12T09:24:59.554Z,53.97
2018-09-12T09:25:59.622Z,54.19
2018-09-12T09:26:59.509Z,53.36
2018-09-12T09:27:59.642Z,52.95
2018-09-12T09:29:00.042Z,52.93
2018-09-12T09:29:59.785Z,52.58
2018-09-12T09:30:59.634Z,52.54
2018-09-12T09:31:59.570Z,53.04
2018-09-12T09:32:59.573Z,53.5
2018-09-12T09:33:59.579Z,52.62
2018-09-12T09:34:59.936Z,52.24
2018-09-12T09:35:59.449Z,51.83
2018-09-12T09:36:59.652Z,51.58
2018-09-12T09:37:59.793Z,52
2018-09-12T09:38:59.657Z,50.89
2018-09-12T09:39:59.897Z,51.45
2018-09-12T09:40:59.611Z,51.03
2018-09-12T09:41:59.647Z,50.92
2018-09-12T09:42:59.556Z,50.33
2018-09-12T09:43:59.624Z,50.92
2018-09-12T09:44:59.633Z,50.34
2018-09-12T09:45:59.601Z,49.9
2018-09-12T09:46:59.591Z,50.14
2018-09-12T09:47:59.588Z,50.4
2018-09-12T09:48:59.594Z,50.64
2018-09-12T09:49:59.632Z,50.38
2018-09-12T09:50:59.630Z,50.61
2018-09-12T09:51:59.598Z,49.63
2018-09-12T09:52:59.505Z,49.45
2018-09-12T09:53:59.617Z,50.02
2018-09-12T09:54:59.566Z,49.83
2018-09-12T09:55:59.733Z,48.19
2018-09-12T09:56:59.559Z,49.07
2018-09-12T09:57:59.649Z,48.72
2018-09-12T09:58:59.647Z,48.53
2018-09-12T09:59:59.846Z,48.15
2018-09-12T10:00:59.645Z,48.43
2018-09-12T10:01:59.678Z,48.28
2018-09-12T10:02:59.660Z,47.71
2018-09-12T10:03:59.662Z,48.71
2018-09-12T10:04:59.635Z,47.68
2018-09-12T10:05:59.679Z,48.24
2018-09-12T10:06:59.642Z,48.21
2018-09-12T10:07:59.815Z,48.08
2018-09-12T10:08:59.704Z,47.82
2018-09-12T10:09:59.584Z,48.09
2018-09-12T10:10:59.741Z,47.84
2018-09-12T10:11:59.656Z,47.31
2018-09-12T10:12:59.612Z,47.74
2018-09-12T10:14:00.148Z,47.47
2018-09-12T10:14:59.627Z,46.5
2018-09-12T10:15:59.434Z,47.02
2018-09-12T10:17:00.051Z,46.49
2018-09-12T10:17:59.650Z,44.83
2018-09-12T10:18:59.624Z,45.16
2018-09-12T10:19:59.955Z,44.45
2018-09-12T10:20:59.603Z,44.74
2018-09-12T10:21:59.691Z,44.36
2018-09-12T10:22:59.735Z,44.97
2018-09-12T10:23:59.528Z,43.11
2018-09-12T10:25:00.013Z,43.12
2018-09-12T10:25:59.569Z,43.17
2018-09-12T10:26:59.651Z,43.63
2018-09-12T10:27:59.791Z,43.24
2018-09-12T10:28:59.678Z,42.94
2018-09-12T10:29:59.740Z,42.74
2018-09-12T10:30:59.587Z,43.39
2018-09-12T10:31:59.597Z,43.48
2018-09-12T10:32:59.654Z,43.02
2018-09-12T10:33:59.575Z,42.9
2018-09-12T10:34:59.697Z,43.17
2018-09-12T10:35:59.595Z,43.12
2018-09-12T10:36:59.671Z,43.17
2018-09-12T10:38:00.028Z,43.15
2018-09-12T10:39:00.041Z,42.8
2018-09-12T10:40:00.230Z,42.72
2018-09-12T10:40:59.649Z,43
2018-09-12T10:41:59.702Z,42.08
2018-09-12T10:42:59.652Z,42.14
2018-09-12T10:43:59.713Z,41.84
2018-09-12T10:44:59.686Z,42.42
2018-09-12T10:45:59.631Z,42.61
2018-09-12T10:46:59.578Z,42.76
2018-09-12T10:47:59.568Z,43
2018-09-12T10:48:59.599Z,42.38
2018-09-12T10:49:59.640Z,42.3
2018-09-12T10:50:59.631Z,42.61
2018-09-12T10:51:59.578Z,42.76
2018-09-12T10:52:59.657Z,42.49
2018-09-12T10:53:59.583Z,41.26
2018-09-12T10:54:59.732Z,41.76
2018-09-12T10:55:59.750Z,40.94
2018-09-12T10:56:59.660Z,40.81
2018-09-12T10:57:59.621Z,41.02
2018-09-12T10:58:59.717Z,41.21
2018-09-12T10:59:59.601Z,40.67
2018-09-12T11:00:59.541Z,40.97
2018-09-12T11:01:59.761Z,41.16
2018-09-12T11:02:59.660Z,41.59
2018-09-12T11:03:59.776Z,41.19
2018-09-12T11:04:59.774Z,40.91
2018-09-12T11:05:59.780Z,41.33
2018-09-12T11:06:59.807Z,40
2018-09-12T11:07:59.692Z,39.85
2018-09-12T11:08:59.717Z,39.83
2018-09-12T11:09:59.812Z,40.41
2018-09-12T11:10:59.617Z,40.21
2018-09-12T11:11:59.727Z,39.21
2018-09-12T11:12:59.731Z,38.81
2018-09-12T11:13:59.733Z,39.08
2018-09-12T11:14:59.737Z,39.96
2018-09-12T11:15:59.747Z,39.28
2018-09-12T11:16:59.754Z,39.62
2018-09-12T11:17:59.674Z,39.73
2018-09-12T11:18:59.992Z,40.07
2018-09-12T11:19:59.876Z,40.23
2018-09-12T11:20:59.782Z,39.54
2018-09-12T11:22:00.203Z,39.9
2018-09-12T11:23:00.412Z,39.6
2018-09-12T11:23:59.712Z,39.17
2018-09-12T11:24:59.604Z,39.78
2018-09-12T11:26:00.751Z,39.58
2018-09-12T11:26:59.823Z,39.5
2018-09-12T11:27:59.947Z,40.15
2018-09-12T11:28:59.695Z,39.94
2018-09-12T11:29:59.904Z,39.54
2018-09-12T11:30:59.650Z,39.01
2018-09-12T11:31:59.755Z,38.88
2018-09-12T11:32:59.605Z,38.71
2018-09-12T11:33:59.666Z,39.75
2018-09-12T11:34:59.670Z,39.67
2018-09-12T11:35:59.851Z,39.25
2018-09-12T11:36:59.897Z,38.56
2018-09-12T11:37:59.780Z,38.47
2018-09-12T11:38:59.700Z,38.13
2018-09-12T11:39:59.679Z,37.96
2018-09-12T11:40:59.549Z,38.41
2018-09-12T11:42:00.042Z,38.25
2018-09-12T11:42:59.634Z,38.39
2018-09-12T11:44:00.063Z,38.23
2018-09-12T11:45:00.061Z,37.71
2018-09-12T11:45:59.747Z,37.43
2018-09-12T11:46:59.760Z,37.32
2018-09-12T11:47:59.693Z,37.34
2018-09-12T11:48:59.784Z,37.83
2018-09-12T11:50:00.201Z,37.85
2018-09-12T11:51:00.017Z,37.45
2018-09-12T11:51:59.838Z,37.66
2018-09-12T11:52:59.780Z,37.36
2018-09-12T11:53:59.806Z,37.79
2018-09-12T11:54:59.722Z,37.47
2018-09-12T11:55:59.676Z,37.66
2018-09-12T11:56:59.754Z,38.3
2018-09-12T11:57:59.830Z,38.12
2018-09-12T11:58:59.662Z,37.65
2018-09-12T11:59:59.964Z,38.52
2018-09-12T12:00:59.765Z,38.29
2018-09-12T12:01:59.790Z,37.69
2018-09-12T12:02:59.661Z,37.64
2018-09-12T12:03:59.706Z,37.25
2018-09-12T12:05:00.290Z,36.79
2018-09-12T12:05:59.672Z,36.74
2018-09-12T12:06:59.689Z,37.11
2018-09-12T12:07:59.813Z,37.44
2018-09-12T12:08:59.669Z,37.01
2018-09-12T12:09:59.815Z,36.45
2018-09-12T12:10:59.872Z,36.5
2018-09-12T12:11:59.722Z,36.29
2018-09-12T12:12:59.885Z,36.49
2018-09-12T12:13:59.762Z,37.17
2018-09-12T12:14:59.770Z,36.82
2018-09-12T12:15:59.750Z,36.73
2018-09-12T12:16:59.551Z,36.17
2018-09-12T12:17:59.691Z,36.56
2018-09-12T12:18:59.701Z,36.69
2018-09-12T12:19:59.720Z,37.26
2018-09-12T12:20:59.631Z,36.21
2018-09-12T12:21:59.891Z,36.37
2018-09-12T12:22:59.933Z,36.58
2018-09-12T12:24:00.742Z,36.65
2018-09-12T12:24:59.722Z,36.28
2018-09-12T12:25:59.706Z,35.86
2018-09-12T12:26:59.724Z,35.92
2018-09-12T12:27:59.921Z,36.1
2018-09-12T12:28:59.763Z,36.22
2018-09-12T12:29:59.831Z,36.85
2018-09-12T12:31:00.063Z,36.45
2018-09-12T12:31:59.674Z,36.36
2018-09-12T12:32:59.898Z,36.73
2018-09-12T12:33:59.716Z,37.12
2018-09-12T12:34:59.787Z,36.71
2018-09-12T12:35:59.669Z,36.79
2018-09-12T12:36:59.796Z,37.4
2018-09-12T12:37:59.920Z,36.22
2018-09-12T12:38:59.813Z,36.45
2018-09-12T12:39:59.828Z,37.27
2018-09-12T12:40:59.956Z,36.28
2018-09-12T12:42:00.134Z,36.24
2018-09-12T12:42:59.657Z,36.62
2018-09-12T12:43:59.678Z,35.78
2018-09-12T12:44:59.989Z,36.02
2018-09-12T12:46:00.162Z,35.53
2018-09-12T12:46:59.693Z,35.26
2018-09-12T12:47:59.650Z,35.13
2018-09-12T12:48:59.689Z,35.77
2018-09-12T12:50:00.197Z,35.05
2018-09-12T12:50:59.713Z,35
2018-09-12T12:51:59.836Z,34.98
2018-09-12T12:52:59.670Z,35.23
2018-09-12T12:54:00.123Z,35.61
2018-09-12T12:54:59.786Z,35.5
2018-09-12T12:55:59.753Z,35.63